sensor_id;sensor_type;location;lat;lon;timestamp;temperature;humidity
16134;DHT22;8172;45.018;5.972;2023-04-24T00:04:52;8.90;69.90
16134;DHT22;8172;45.018;5.972;2023-04-24T00:10:00;8.70;69.90
16134;DHT22;8172;45.018;5.972;2023-04-24T00:15:08;8.50;70.20
16134;DHT22;8172;45.018;5.972;2023-04-24T00:20:15;8.40;70.50
16134;DHT22;8172;45.018;5.972;2023-04-24T00:25:23;8.40;70.70
16134;DHT22;8172;45.018;5.972;2023-04-24T00:30:31;8.50;70.60
16134;DHT22;8172;45.018;5.972;2023-04-24T00:35:40;8.50;70.60
16134;DHT22;8172;45.018;5.972;2023-04-24T00:40:49;8.60;70.40
16134;DHT22;8172;45.018;5.972;2023-04-24T00:45:57;8.60;70.10
16134;DHT22;8172;45.018;5.972;2023-04-24T00:51:07;8.50;70.30
16134;DHT22;8172;45.018;5.972;2023-04-24T00:56:15;8.60;70.40
16134;DHT22;8172;45.018;5.972;2023-04-24T01:01:23;8.60;70.30
16134;DHT22;8172;45.018;5.972;2023-04-24T01:06:32;8.60;70.30
16134;DHT22;8172;45.018;5.972;2023-04-24T01:11:41;8.60;70.30
16134;DHT22;8172;45.018;5.972;2023-04-24T01:16:49;8.50;70.30
16134;DHT22;8172;45.018;5.972;2023-04-24T01:21:59;8.50;70.40
16134;DHT22;8172;45.018;5.972;2023-04-24T01:27:08;8.50;70.50
16134;DHT22;8172;45.018;5.972;2023-04-24T01:32:16;8.50;70.80
16134;DHT22;8172;45.018;5.972;2023-04-24T01:37:26;8.50;70.90
16134;DHT22;8172;45.018;5.972;2023-04-24T01:42:35;8.50;71.00
16134;DHT22;8172;45.018;5.972;2023-04-24T01:47:45;8.50;71.00
16134;DHT22;8172;45.018;5.972;2023-04-24T01:52:54;8.60;70.90
16134;DHT22;8172;45.018;5.972;2023-04-24T01:58:02;8.60;70.80
16134;DHT22;8172;45.018;5.972;2023-04-24T02:03:10;8.50;70.80
16134;DHT22;8172;45.018;5.972;2023-04-24T02:08:18;8.50;70.80
16134;DHT22;8172;45.018;5.972;2023-04-24T02:13:27;8.50;70.90
16134;DHT22;8172;45.018;5.972;2023-04-24T02:18:35;8.50;70.90
16134;DHT22;8172;45.018;5.972;2023-04-24T02:23:43;8.50;70.90
16134;DHT22;8172;45.018;5.972;2023-04-24T02:28:51;8.50;70.90
16134;DHT22;8172;45.018;5.972;2023-04-24T02:33:59;8.50;71.00
16134;DHT22;8172;45.018;5.972;2023-04-24T02:39:07;8.60;71.00
16134;DHT22;8172;45.018;5.972;2023-04-24T02:44:16;8.60;71.00
16134;DHT22;8172;45.018;5.972;2023-04-24T02:49:24;8.60;71.00
16134;DHT22;8172;45.018;5.972;2023-04-24T02:54:32;8.60;71.00
16134;DHT22;8172;45.018;5.972;2023-04-24T02:59:40;8.50;71.10
16134;DHT22;8172;45.018;5.972;2023-04-24T03:04:48;8.50;71.20
16134;DHT22;8172;45.018;5.972;2023-04-24T03:09:58;8.50;71.30
16134;DHT22;8172;45.018;5.972;2023-04-24T03:15:06;8.50;71.30
16134;DHT22;8172;45.018;5.972;2023-04-24T03:20:15;8.50;71.30
16134;DHT22;8172;45.018;5.972;2023-04-24T03:25:23;8.50;71.00
16134;DHT22;8172;45.018;5.972;2023-04-24T03:30:32;8.40;71.10
16134;DHT22;8172;45.018;5.972;2023-04-24T03:35:42;8.40;71.40
16134;DHT22;8172;45.018;5.972;2023-04-24T03:40:50;8.40;71.30
16134;DHT22;8172;45.018;5.972;2023-04-24T03:46:00;8.40;71.30
16134;DHT22;8172;45.018;5.972;2023-04-24T03:51:09;8.50;71.20
16134;DHT22;8172;45.018;5.972;2023-04-24T03:56:18;8.50;71.30
16134;DHT22;8172;45.018;5.972;2023-04-24T04:01:27;8.40;71.40
16134;DHT22;8172;45.018;5.972;2023-04-24T04:06:37;8.40;71.50
16134;DHT22;8172;45.018;5.972;2023-04-24T04:11:45;8.40;71.60
16134;DHT22;8172;45.018;5.972;2023-04-24T04:16:53;8.40;71.70
16134;DHT22;8172;45.018;5.972;2023-04-24T04:22:01;8.50;71.80
16134;DHT22;8172;45.018;5.972;2023-04-24T04:27:11;8.50;71.80
16134;DHT22;8172;45.018;5.972;2023-04-24T04:32:21;8.50;71.80
16134;DHT22;8172;45.018;5.972;2023-04-24T04:37:32;8.50;71.80
16134;DHT22;8172;45.018;5.972;2023-04-24T04:42:41;8.40;72.00
16134;DHT22;8172;45.018;5.972;2023-04-24T04:47:51;8.40;72.10
16134;DHT22;8172;45.018;5.972;2023-04-24T04:53:02;8.40;71.90
16134;DHT22;8172;45.018;5.972;2023-04-24T04:58:11;8.30;72.00
16134;DHT22;8172;45.018;5.972;2023-04-24T05:03:23;8.40;72.00
16134;DHT22;8172;45.018;5.972;2023-04-24T05:08:35;8.40;72.00
16134;DHT22;8172;45.018;5.972;2023-04-24T05:13:45;8.40;72.10
16134;DHT22;8172;45.018;5.972;2023-04-24T05:18:55;8.30;72.10
16134;DHT22;8172;45.018;5.972;2023-04-24T05:24:04;8.30;72.20
16134;DHT22;8172;45.018;5.972;2023-04-24T05:29:14;8.40;72.30
16134;DHT22;8172;45.018;5.972;2023-04-24T05:34:22;8.50;72.40
16134;DHT22;8172;45.018;5.972;2023-04-24T05:39:32;8.50;72.50
16134;DHT22;8172;45.018;5.972;2023-04-24T05:44:41;8.50;72.40
16134;DHT22;8172;45.018;5.972;2023-04-24T05:49:49;8.60;72.40
16134;DHT22;8172;45.018;5.972;2023-04-24T05:54:57;8.50;72.20
16134;DHT22;8172;45.018;5.972;2023-04-24T06:00:09;8.30;72.20
16134;DHT22;8172;45.018;5.972;2023-04-24T06:05:20;8.30;72.60
16134;DHT22;8172;45.018;5.972;2023-04-24T06:10:31;8.50;72.80
16134;DHT22;8172;45.018;5.972;2023-04-24T06:15:40;8.50;72.60
16134;DHT22;8172;45.018;5.972;2023-04-24T06:20:50;8.50;72.50
16134;DHT22;8172;45.018;5.972;2023-04-24T06:25:59;8.50;72.80
16134;DHT22;8172;45.018;5.972;2023-04-24T06:31:07;8.50;73.10
16134;DHT22;8172;45.018;5.972;2023-04-24T06:36:17;8.50;73.30
16134;DHT22;8172;45.018;5.972;2023-04-24T06:41:26;8.50;73.60
16134;DHT22;8172;45.018;5.972;2023-04-24T06:46:34;8.40;73.90
16134;DHT22;8172;45.018;5.972;2023-04-24T06:51:44;8.30;74.30
16134;DHT22;8172;45.018;5.972;2023-04-24T06:56:52;8.00;74.40
16134;DHT22;8172;45.018;5.972;2023-04-24T07:02:01;7.90;74.90
16134;DHT22;8172;45.018;5.972;2023-04-24T07:07:11;7.90;75.30
16134;DHT22;8172;45.018;5.972;2023-04-24T07:12:21;8.00;75.50
16134;DHT22;8172;45.018;5.972;2023-04-24T07:17:30;8.10;75.40
16134;DHT22;8172;45.018;5.972;2023-04-24T07:22:39;8.20;75.50
16134;DHT22;8172;45.018;5.972;2023-04-24T07:27:48;8.00;75.50
16134;DHT22;8172;45.018;5.972;2023-04-24T07:33:01;8.00;75.10
16134;DHT22;8172;45.018;5.972;2023-04-24T07:38:11;8.00;75.10
16134;DHT22;8172;45.018;5.972;2023-04-24T07:43:20;8.10;75.40
16134;DHT22;8172;45.018;5.972;2023-04-24T07:48:30;8.20;75.50
16134;DHT22;8172;45.018;5.972;2023-04-24T07:53:38;8.40;75.20
16134;DHT22;8172;45.018;5.972;2023-04-24T07:58:46;8.60;75.00
16134;DHT22;8172;45.018;5.972;2023-04-24T08:03:54;8.80;74.70
16134;DHT22;8172;45.018;5.972;2023-04-24T08:09:02;8.80;74.70
16134;DHT22;8172;45.018;5.972;2023-04-24T08:14:10;8.90;74.70
16134;DHT22;8172;45.018;5.972;2023-04-24T08:19:19;8.90;74.80
16134;DHT22;8172;45.018;5.972;2023-04-24T08:24:27;8.90;75.20
16134;DHT22;8172;45.018;5.972;2023-04-24T08:29:36;8.80;75.10
16134;DHT22;8172;45.018;5.972;2023-04-24T08:34:44;8.80;74.80
16134;DHT22;8172;45.018;5.972;2023-04-24T08:39:53;8.80;74.90
16134;DHT22;8172;45.018;5.972;2023-04-24T08:45:01;8.90;74.40
16134;DHT22;8172;45.018;5.972;2023-04-24T08:50:10;9.00;74.60
16134;DHT22;8172;45.018;5.972;2023-04-24T08:55:20;9.00;74.60
16134;DHT22;8172;45.018;5.972;2023-04-24T09:00:29;9.00;74.30
16134;DHT22;8172;45.018;5.972;2023-04-24T09:05:37;9.00;74.10
16134;DHT22;8172;45.018;5.972;2023-04-24T09:10:47;9.10;73.10
16134;DHT22;8172;45.018;5.972;2023-04-24T09:15:56;9.20;72.50
16134;DHT22;8172;45.018;5.972;2023-04-24T09:21:07;9.30;74.10
16134;DHT22;8172;45.018;5.972;2023-04-24T09:26:15;9.40;74.40
16134;DHT22;8172;45.018;5.972;2023-04-24T09:31:24;9.60;74.00
16134;DHT22;8172;45.018;5.972;2023-04-24T09:36:36;9.80;74.10
16134;DHT22;8172;45.018;5.972;2023-04-24T09:41:46;9.90;73.90
16134;DHT22;8172;45.018;5.972;2023-04-24T09:46:56;10.00;73.90
16134;DHT22;8172;45.018;5.972;2023-04-24T09:52:08;10.00;73.70
16134;DHT22;8172;45.018;5.972;2023-04-24T09:57:17;10.10;73.70
16134;DHT22;8172;45.018;5.972;2023-04-24T10:02:26;10.20;72.10
16134;DHT22;8172;45.018;5.972;2023-04-24T10:07:34;10.20;71.10
16134;DHT22;8172;45.018;5.972;2023-04-24T10:12:43;10.20;71.40
16134;DHT22;8172;45.018;5.972;2023-04-24T10:17:52;10.20;72.30
16134;DHT22;8172;45.018;5.972;2023-04-24T10:23:00;10.40;72.40
16134;DHT22;8172;45.018;5.972;2023-04-24T10:28:10;10.40;71.50
16134;DHT22;8172;45.018;5.972;2023-04-24T10:33:20;10.50;70.50
16134;DHT22;8172;45.018;5.972;2023-04-24T10:38:30;10.50;70.50
16134;DHT22;8172;45.018;5.972;2023-04-24T10:43:40;10.60;71.20
16134;DHT22;8172;45.018;5.972;2023-04-24T10:54:00;11.00;70.30
16134;DHT22;8172;45.018;5.972;2023-04-24T10:59:10;11.20;69.80
16134;DHT22;8172;45.018;5.972;2023-04-24T11:04:28;11.30;68.90
16134;DHT22;8172;45.018;5.972;2023-04-24T11:09:31;11.30;66.50
16134;DHT22;8172;45.018;5.972;2023-04-24T11:14:59;11.40;67.80
16134;DHT22;8172;45.018;5.972;2023-04-24T11:20:00;11.40;68.00
16134;DHT22;8172;45.018;5.972;2023-04-24T11:25:09;11.40;66.80
16134;DHT22;8172;45.018;5.972;2023-04-24T11:30:20;11.40;67.40
16134;DHT22;8172;45.018;5.972;2023-04-24T11:35:29;11.50;66.60
16134;DHT22;8172;45.018;5.972;2023-04-24T11:40:38;11.50;65.90
16134;DHT22;8172;45.018;5.972;2023-04-24T11:45:48;11.60;64.40
16134;DHT22;8172;45.018;5.972;2023-04-24T11:50:57;11.50;64.30
16134;DHT22;8172;45.018;5.972;2023-04-24T11:56:05;11.50;64.30
16134;DHT22;8172;45.018;5.972;2023-04-24T12:01:14;11.60;62.70
16134;DHT22;8172;45.018;5.972;2023-04-24T12:06:23;11.50;63.10
16134;DHT22;8172;45.018;5.972;2023-04-24T12:11:33;11.50;62.70
16134;DHT22;8172;45.018;5.972;2023-04-24T12:16:41;11.50;63.70
16134;DHT22;8172;45.018;5.972;2023-04-24T12:26:59;11.60;62.60
16134;DHT22;8172;45.018;5.972;2023-04-24T12:37:20;11.90;61.70
16134;DHT22;8172;45.018;5.972;2023-04-24T12:42:29;12.10;59.60
16134;DHT22;8172;45.018;5.972;2023-04-24T12:47:38;12.10;59.50
16134;DHT22;8172;45.018;5.972;2023-04-24T12:52:49;12.20;57.30
16134;DHT22;8172;45.018;5.972;2023-04-24T12:58:00;12.20;57.10
16134;DHT22;8172;45.018;5.972;2023-04-24T13:03:10;12.10;56.20
16134;DHT22;8172;45.018;5.972;2023-04-24T13:08:20;12.00;54.30
16134;DHT22;8172;45.018;5.972;2023-04-24T13:13:28;11.90;52.70
16134;DHT22;8172;45.018;5.972;2023-04-24T13:18:36;11.70;51.90
16134;DHT22;8172;45.018;5.972;2023-04-24T13:23:44;11.70;54.10
16134;DHT22;8172;45.018;5.972;2023-04-24T13:28:52;12.00;54.00
16134;DHT22;8172;45.018;5.972;2023-04-24T13:34:01;12.10;54.20
16134;DHT22;8172;45.018;5.972;2023-04-24T13:39:10;12.30;53.50
16134;DHT22;8172;45.018;5.972;2023-04-24T13:44:19;12.40;52.90
16134;DHT22;8172;45.018;5.972;2023-04-24T13:49:27;12.50;53.50
16134;DHT22;8172;45.018;5.972;2023-04-24T13:54:36;12.70;53.80
16134;DHT22;8172;45.018;5.972;2023-04-24T13:59:44;12.90;53.60
16134;DHT22;8172;45.018;5.972;2023-04-24T14:04:52;13.00;54.60
16134;DHT22;8172;45.018;5.972;2023-04-24T14:10:01;13.20;52.00
16134;DHT22;8172;45.018;5.972;2023-04-24T14:15:10;13.20;51.20
16134;DHT22;8172;45.018;5.972;2023-04-24T14:20:20;13.30;51.90
16134;DHT22;8172;45.018;5.972;2023-04-24T14:25:28;13.40;53.30
16134;DHT22;8172;45.018;5.972;2023-04-24T14:30:36;13.60;53.50
16134;DHT22;8172;45.018;5.972;2023-04-24T14:35:47;13.70;51.90
16134;DHT22;8172;45.018;5.972;2023-04-24T14:40:55;13.80;50.10
16134;DHT22;8172;45.018;5.972;2023-04-24T14:46:05;13.90;51.40
16134;DHT22;8172;45.018;5.972;2023-04-24T14:51:13;13.90;52.40
16134;DHT22;8172;45.018;5.972;2023-04-24T14:56:23;14.10;52.60
16134;DHT22;8172;45.018;5.972;2023-04-24T15:01:32;14.30;51.90
16134;DHT22;8172;45.018;5.972;2023-04-24T15:06:40;14.40;51.20
16134;DHT22;8172;45.018;5.972;2023-04-24T15:11:49;14.50;51.70
16134;DHT22;8172;45.018;5.972;2023-04-24T15:16:57;14.50;50.60
16134;DHT22;8172;45.018;5.972;2023-04-24T15:22:05;14.50;49.90
16134;DHT22;8172;45.018;5.972;2023-04-24T15:27:14;14.40;48.60
16134;DHT22;8172;45.018;5.972;2023-04-24T15:32:22;14.30;47.70
16134;DHT22;8172;45.018;5.972;2023-04-24T15:37:32;14.10;49.00
16134;DHT22;8172;45.018;5.972;2023-04-24T15:42:40;14.30;48.60
16134;DHT22;8172;45.018;5.972;2023-04-24T15:47:48;14.30;48.80
16134;DHT22;8172;45.018;5.972;2023-04-24T15:52:58;14.20;48.90
16134;DHT22;8172;45.018;5.972;2023-04-24T15:58:06;14.10;49.30
16134;DHT22;8172;45.018;5.972;2023-04-24T16:03:15;13.90;49.90
16134;DHT22;8172;45.018;5.972;2023-04-24T16:08:23;13.80;50.60
16134;DHT22;8172;45.018;5.972;2023-04-24T16:13:31;13.70;50.70
16134;DHT22;8172;45.018;5.972;2023-04-24T16:18:40;13.60;50.70
16134;DHT22;8172;45.018;5.972;2023-04-24T16:23:48;13.50;50.90
16134;DHT22;8172;45.018;5.972;2023-04-24T16:28:57;13.40;51.10
16134;DHT22;8172;45.018;5.972;2023-04-24T16:34:05;13.40;51.20
16134;DHT22;8172;45.018;5.972;2023-04-24T16:39:12;13.20;51.20
16134;DHT22;8172;45.018;5.972;2023-04-24T16:44:22;13.10;51.70
16134;DHT22;8172;45.018;5.972;2023-04-24T16:49:31;13.00;52.20
16134;DHT22;8172;45.018;5.972;2023-04-24T16:54:40;12.90;52.30
16134;DHT22;8172;45.018;5.972;2023-04-24T16:59:51;12.80;52.40
16134;DHT22;8172;45.018;5.972;2023-04-24T17:04:59;12.80;52.70
16134;DHT22;8172;45.018;5.972;2023-04-24T17:10:08;12.60;52.80
16134;DHT22;8172;45.018;5.972;2023-04-24T17:15:17;12.60;53.40
16134;DHT22;8172;45.018;5.972;2023-04-24T17:20:27;12.50;53.80
16134;DHT22;8172;45.018;5.972;2023-04-24T17:25:36;12.50;53.60
16134;DHT22;8172;45.018;5.972;2023-04-24T17:30:44;12.40;53.40
16134;DHT22;8172;45.018;5.972;2023-04-24T17:35:53;12.40;54.00
16134;DHT22;8172;45.018;5.972;2023-04-24T17:41:02;12.30;54.20
16134;DHT22;8172;45.018;5.972;2023-04-24T17:46:10;12.30;54.80
16134;DHT22;8172;45.018;5.972;2023-04-24T17:51:19;12.20;54.50
16134;DHT22;8172;45.018;5.972;2023-04-24T17:56:27;12.00;54.00
16134;DHT22;8172;45.018;5.972;2023-04-24T18:01:37;11.90;54.00
16134;DHT22;8172;45.018;5.972;2023-04-24T18:06:46;11.80;54.40
16134;DHT22;8172;45.018;5.972;2023-04-24T18:11:54;11.70;54.40
16134;DHT22;8172;45.018;5.972;2023-04-24T18:17:03;11.70;54.60
16134;DHT22;8172;45.018;5.972;2023-04-24T18:22:13;11.70;54.70
16134;DHT22;8172;45.018;5.972;2023-04-24T18:27:21;11.60;54.70
16134;DHT22;8172;45.018;5.972;2023-04-24T18:32:31;11.60;55.10
16134;DHT22;8172;45.018;5.972;2023-04-24T18:37:40;11.50;55.20
16134;DHT22;8172;45.018;5.972;2023-04-24T18:42:47;11.40;55.30
16134;DHT22;8172;45.018;5.972;2023-04-24T18:47:56;11.30;55.60
16134;DHT22;8172;45.018;5.972;2023-04-24T18:53:04;11.20;55.80
16134;DHT22;8172;45.018;5.972;2023-04-24T18:58:12;11.10;56.00
16134;DHT22;8172;45.018;5.972;2023-04-24T19:03:20;11.00;55.70
16134;DHT22;8172;45.018;5.972;2023-04-24T19:08:30;11.00;55.60
16134;DHT22;8172;45.018;5.972;2023-04-24T19:13:37;10.90;55.70
16134;DHT22;8172;45.018;5.972;2023-04-24T19:18:45;10.90;56.10
16134;DHT22;8172;45.018;5.972;2023-04-24T19:23:54;10.90;56.10
16134;DHT22;8172;45.018;5.972;2023-04-24T19:29:03;10.90;55.80
16134;DHT22;8172;45.018;5.972;2023-04-24T19:34:10;10.90;56.10
16134;DHT22;8172;45.018;5.972;2023-04-24T19:39:18;10.80;56.20
16134;DHT22;8172;45.018;5.972;2023-04-24T19:44:27;10.80;56.30
16134;DHT22;8172;45.018;5.972;2023-04-24T19:49:35;10.80;56.50
16134;DHT22;8172;45.018;5.972;2023-04-24T19:54:44;10.80;56.50
16134;DHT22;8172;45.018;5.972;2023-04-24T19:59:52;10.80;56.90
16134;DHT22;8172;45.018;5.972;2023-04-24T20:04:59;10.70;56.80
16134;DHT22;8172;45.018;5.972;2023-04-24T20:10:09;10.70;56.90
16134;DHT22;8172;45.018;5.972;2023-04-24T20:15:17;10.70;57.10
16134;DHT22;8172;45.018;5.972;2023-04-24T20:20:25;10.60;57.40
16134;DHT22;8172;45.018;5.972;2023-04-24T20:25:33;10.60;57.60
16134;DHT22;8172;45.018;5.972;2023-04-24T20:30:41;10.60;57.40
16134;DHT22;8172;45.018;5.972;2023-04-24T20:35:50;10.50;57.30
16134;DHT22;8172;45.018;5.972;2023-04-24T20:40:59;10.50;57.00
16134;DHT22;8172;45.018;5.972;2023-04-24T20:46:06;10.50;56.70
16134;DHT22;8172;45.018;5.972;2023-04-24T20:51:15;10.60;56.90
16134;DHT22;8172;45.018;5.972;2023-04-24T20:56:24;10.60;57.00
16134;DHT22;8172;45.018;5.972;2023-04-24T21:01:32;10.60;57.20
16134;DHT22;8172;45.018;5.972;2023-04-24T21:06:40;10.60;57.00
16134;DHT22;8172;45.018;5.972;2023-04-24T21:11:47;10.60;57.40
16134;DHT22;8172;45.018;5.972;2023-04-24T21:16:56;10.60;57.60
16134;DHT22;8172;45.018;5.972;2023-04-24T21:22:06;10.60;57.00
16134;DHT22;8172;45.018;5.972;2023-04-24T21:27:15;10.60;57.20
16134;DHT22;8172;45.018;5.972;2023-04-24T21:32:24;10.50;57.50
16134;DHT22;8172;45.018;5.972;2023-04-24T21:37:32;10.50;57.60
16134;DHT22;8172;45.018;5.972;2023-04-24T21:42:41;10.50;57.60
16134;DHT22;8172;45.018;5.972;2023-04-24T21:47:49;10.40;57.70
16134;DHT22;8172;45.018;5.972;2023-04-24T21:52:57;10.40;57.80
16134;DHT22;8172;45.018;5.972;2023-04-24T21:58:05;10.40;57.80
16134;DHT22;8172;45.018;5.972;2023-04-24T22:03:14;10.30;58.00
16134;DHT22;8172;45.018;5.972;2023-04-24T22:08:24;10.30;58.30
16134;DHT22;8172;45.018;5.972;2023-04-24T22:13:32;10.30;58.50
16134;DHT22;8172;45.018;5.972;2023-04-24T22:18:40;10.30;58.70
16134;DHT22;8172;45.018;5.972;2023-04-24T22:23:50;10.20;58.90
16134;DHT22;8172;45.018;5.972;2023-04-24T22:28:57;10.20;58.80
16134;DHT22;8172;45.018;5.972;2023-04-24T22:34:05;10.20;58.80
16134;DHT22;8172;45.018;5.972;2023-04-24T22:39:13;10.20;58.80
16134;DHT22;8172;45.018;5.972;2023-04-24T22:44:24;10.10;59.00
16134;DHT22;8172;45.018;5.972;2023-04-24T22:49:32;10.10;58.80
16134;DHT22;8172;45.018;5.972;2023-04-24T22:54:40;10.00;58.90
16134;DHT22;8172;45.018;5.972;2023-04-24T22:59:48;10.00;58.80
16134;DHT22;8172;45.018;5.972;2023-04-24T23:04:56;9.90;58.90
16134;DHT22;8172;45.018;5.972;2023-04-24T23:10:05;9.80;58.90
16134;DHT22;8172;45.018;5.972;2023-04-24T23:15:14;9.80;59.20
16134;DHT22;8172;45.018;5.972;2023-04-24T23:20:22;9.70;59.50
16134;DHT22;8172;45.018;5.972;2023-04-24T23:25:30;9.60;59.70
16134;DHT22;8172;45.018;5.972;2023-04-24T23:30:38;9.60;59.70
16134;DHT22;8172;45.018;5.972;2023-04-24T23:35:46;9.50;59.90
16134;DHT22;8172;45.018;5.972;2023-04-24T23:40:56;9.40;60.20
16134;DHT22;8172;45.018;5.972;2023-04-24T23:46:05;9.40;60.10
16134;DHT22;8172;45.018;5.972;2023-04-24T23:51:17;9.40;60.10
16134;DHT22;8172;45.018;5.972;2023-04-24T23:56:25;9.30;60.40
